Time;durP1;ratioP1;P1;durP2;ratioP2;P2;SDS_P1;SDS_P2;PMS_P1;PMS_P2;Temp;Humidity;BMP_temperature;BMP_pressure;BME280_temperature;BME280_humidity;BME280_pressure;Samples;Min_cycle;Max_cycle;Signal;HPM_P1;HPM_P2
2022/12/17 13:07:16;;;;;;;;;;;;;;;;;;5017833;28;19902;-87
2022/12/17 13:09:41;;;;;;;;;;;;;;;;;;5019197;28;19937;-85
2022/12/17 13:15:06;;;;;;;;;;;;;;;;;;5017501;28;19922;-86
2022/12/17 13:17:34;;;;;;;;;;;;;;;;;;5271495;22;19962;-84
2022/12/17 13:20:00;;;;;;;;;;;;;;;;;;5018171;28;19913;-85
2022/12/17 13:22:25;;;;;;;;;;;;;;;;;;5002681;28;19918;-85
2022/12/17 13:24:56;;;;;;;;;;;;;;;;;;5000419;28;19910;-85
2022/12/17 13:27:24;;;;;;;;;;;;;;;;;;4985057;28;19936;-86
2022/12/17 13:29:50;;;;;;;;;;;;;;;;;;5000872;28;19975;-84
2022/12/17 13:32:22;;;;;;;;;;;;;;;;;;5001795;28;19937;-86
2022/12/17 13:34:50;;;;;;;;;;;;;;;;;;5017961;28;19913;-86
2022/12/17 13:37:16;;;;;;;;;;;;;;;;;;5018437;28;19906;-87
2022/12/17 13:39:42;;;;;;;;;;;;;;;;;;5515967;23;19982;-86
2022/12/17 13:42:10;;;;;;;;;;;;;;;;;;5034254;23;19993;-86
2022/12/17 13:52:43;;;;;;;;;;;;;;;;;;5213330;22;19918;-86
2022/12/17 13:55:10;;;;;;;;;;;;;;;;;;5167642;23;19916;-86
2022/12/17 13:57:43;;;;;;;;;;;;;;;;;;5042375;28;19917;-84
2022/12/17 14:00:12;;;;;;;;;;;;;;;;;;5052462;28;19902;-87
2022/12/17 14:02:38;;;;;;;;;;;;;;;;;;5037990;28;19976;-87
2022/12/17 14:05:08;;;;;;;;;;;;;;;;;;5217441;22;19925;-86
2022/12/17 14:07:37;;;;;;;;;;;;;;;;;;5474158;23;19927;-86
2022/12/17 14:10:05;;;;;;;;;;;;;;;;;;5187333;22;19917;-88
2022/12/17 14:12:34;;;;;;;;;;;;;;;;;;5002536;28;19937;-88
2022/12/17 14:15:00;;;;;;;;;;;;;;;;;;5650914;23;19931;-86
2022/12/17 14:17:28;;;;;;;;;;;;;;;;;;4982446;28;19906;-84
2022/12/17 14:19:54;;;;;;;;;;;;;;;;;;5585463;22;21239;-83
2022/12/17 14:22:20;;;;;;;;;;;;;;;;;;5105747;23;19928;-85
2022/12/17 14:30:02;;;;;;;;;;;;;;;;;;5716399;22;19953;-86
2022/12/17 14:32:46;;;;;;;;;;;;;;;;;;5282262;22;21796;-84
2022/12/17 14:35:14;;;;;;;;;;;;;;;;;;5001300;28;20022;-85
2022/12/17 14:37:40;;;;;;;;;;;;;;;;;;4999968;23;19921;-83
2022/12/17 14:40:07;;;;;;;;;;;;;;;;;;5021101;28;19902;-85
2022/12/17 14:42:34;;;;;;;;;;;;;;;;;;4988525;28;19920;-84
2022/12/17 14:45:00;;;;;;;;;;;;;;;;;;4988261;28;19953;-84
2022/12/17 14:47:27;;;;;;;;;;;;;;;;;;5003972;28;19902;-84
2022/12/17 14:49:56;;;;;;;;;;;;;;;;;;5004548;28;19910;-84
2022/12/17 14:52:23;;;;;;;;;;;;;;;;;;5187425;23;19925;-86
2022/12/17 14:54:50;;;;;;;;;;;;;;;;;;5279271;23;19922;-86
2022/12/17 14:57:28;;;;;;;;;;;;;;;;;;5325119;23;19947;-85
2022/12/17 15:11:08;;;;;;;;;;;;;;;;;;4971003;22;7003158;-87
2022/12/17 15:13:34;;;;;;;;;;;;;;;;;;5020766;28;19959;-87
2022/12/17 15:16:03;;;;;;;;;;;;;;;;;;5570636;23;19949;-87
2022/12/17 15:21:13;;;;;;;;;;;;;;;;;;5589578;22;19926;-86
2022/12/17 15:26:14;;;;;;;;;;;;;;;;;;5002991;28;19930;-86
2022/12/17 15:39:31;;;;;;;;;;;;;;;;;;6028210;23;20740;-82
2022/12/17 15:44:41;;;;;;;;;;;;;;;;;;5019086;28;19918;-87
2022/12/17 15:47:07;;;;;;;;;;;;;;;;;;5003610;28;19902;-87
2022/12/17 15:49:33;;;;;;;;;;;;;;;;;;4987706;28;19909;-87
2022/12/17 15:57:27;;;;;;;;;;;;;;;;;;5080044;22;19926;-86
2022/12/17 15:59:55;;;;;;;;;;;;;;;;;;5316237;23;19989;-88
2022/12/17 16:02:24;;;;;;;;;;;;;;;;;;5932900;22;19951;-85
2022/12/17 16:07:31;;;;;;;;;;;;;;;;;;5769147;22;19910;-85
2022/12/17 16:12:39;;;;;;;;;;;;;;;;;;5362276;23;20032;-87
2022/12/17 16:17:46;;;;;;;;;;;;;;;;;;5264368;22;19925;-86
2022/12/17 16:28:07;;;;;;;;;;;;;;;;;;5627137;22;19926;-84
2022/12/17 16:33:17;;;;;;;;;;;;;;;;;;5829146;23;19930;-87
2022/12/17 16:35:45;;;;;;;;;;;;;;;;;;5003223;28;19969;-87
2022/12/17 16:38:14;;;;;;;;;;;;;;;;;;5384081;22;19917;-86
2022/12/17 16:40:43;;;;;;;;;;;;;;;;;;5334231;23;19909;-87
2022/12/17 16:43:09;;;;;;;;;;;;;;;;;;5615815;23;20018;-82
2022/12/17 16:53:40;;;;;;;;;;;;;;;;;;5017534;28;19910;-86
2022/12/17 17:01:11;;;;;;;;;;;;;;;;;;5759409;22;19935;-87
2022/12/17 17:06:20;;;;;;;;;;;;;;;;;;5366054;22;19925;-87
2022/12/17 17:08:50;;;;;;;;;;;;;;;;;;5041987;28;19968;-87
2022/12/17 17:11:23;;;;;;;;;;;;;;;;;;5026520;28;19909;-86
2022/12/17 17:13:52;;;;;;;;;;;;;;;;;;5005886;28;19918;-86
2022/12/17 17:16:26;;;;;;;;;;;;;;;;;;5315698;23;19914;-86
2022/12/17 17:18:52;;;;;;;;;;;;;;;;;;5285905;23;19915;-86
2022/12/17 17:21:18;;;;;;;;;;;;;;;;;;5122372;23;19975;-85
2022/12/17 17:23:50;;;;;;;;;;;;;;;;;;5002777;28;19918;-84
2022/12/17 17:26:16;;;;;;;;;;;;;;;;;;5000606;28;19909;-83
2022/12/17 17:28:47;;;;;;;;;;;;;;;;;;4983697;28;19932;-84
2022/12/17 17:31:15;;;;;;;;;;;;;;;;;;5015237;28;19957;-84
2022/12/17 17:33:45;;;;;;;;;;;;;;;;;;4999896;28;19910;-84
2022/12/17 17:36:41;;;;;;;;;;;;;;;;;;5005458;28;19909;-84
2022/12/17 17:39:15;;;;;;;;;;;;;;;;;;5404950;23;19909;-84
2022/12/17 17:41:41;;;;;;;;;;;;;;;;;;5179998;23;19926;-84
2022/12/17 17:44:07;;;;;;;;;;;;;;;;;;5018568;28;19902;-85
2022/12/17 17:46:38;;;;;;;;;;;;;;;;;;5017835;28;19914;-85
2022/12/17 17:49:05;;;;;;;;;;;;;;;;;;5001965;28;19918;-85
2022/12/17 17:51:35;;;;;;;;;;;;;;;;;;4982658;28;19902;-83
2022/12/17 17:54:04;;;;;;;;;;;;;;;;;;5207945;22;19924;-81
2022/12/17 17:59:18;;;;;;;;;;;;;;;;;;5354955;23;19910;-84
2022/12/17 18:04:32;;;;;;;;;;;;;;;;;;5324888;23;19933;-85
2022/12/17 18:07:00;;;;;;;;;;;;;;;;;;5017067;28;19914;-83
2022/12/17 18:09:25;;;;;;;;;;;;;;;;;;5000884;28;19981;-84
2022/12/17 18:11:53;;;;;;;;;;;;;;;;;;5016467;28;19902;-85
2022/12/17 18:14:19;;;;;;;;;;;;;;;;;;5021513;28;19937;-84
2022/12/17 18:16:45;;;;;;;;;;;;;;;;;;5020290;28;19908;-82
2022/12/17 18:19:10;;;;;;;;;;;;;;;;;;5019145;28;20009;-83
2022/12/17 18:21:37;;;;;;;;;;;;;;;;;;5018830;28;19913;-83
2022/12/17 18:24:02;;;;;;;;;;;;;;;;;;4985813;28;19914;-84
2022/12/17 18:26:28;;;;;;;;;;;;;;;;;;5018288;28;20030;-82
2022/12/17 18:28:54;;;;;;;;;;;;;;;;;;5015784;28;19922;-83
2022/12/17 18:31:20;;;;;;;;;;;;;;;;;;5019154;28;19914;-83
2022/12/17 18:33:45;;;;;;;;;;;;;;;;;;5018611;28;19996;-83
2022/12/17 18:36:11;;;;;;;;;;;;;;;;;;5002950;28;19981;-85
2022/12/17 18:38:39;;;;;;;;;;;;;;;;;;5004082;28;19914;-85
2022/12/17 18:43:21;;;;;;;;;;;;;;;;;;5020806;28;19925;-83
2022/12/17 18:43:50;;;;;;;;;;;;;;;;;;5019689;28;19960;-83
2022/12/17 18:46:16;;;;;;;;;;;;;;;;;;5021058;28;19909;-83
2022/12/17 18:48:42;;;;;;;;;;;;;;;;;;5020653;28;19918;-81
2022/12/17 18:51:07;;;;;;;;;;;;;;;;;;5020396;28;19921;-82
2022/12/17 18:53:33;;;;;;;;;;;;;;;;;;5020560;28;19909;-80
2022/12/17 18:55:59;;;;;;;;;;;;;;;;;;4987714;28;19898;-81
2022/12/17 18:58:24;;;;;;;;;;;;;;;;;;5019705;28;19921;-81
2022/12/17 19:00:50;;;;;;;;;;;;;;;;;;5019591;28;19904;-83
2022/12/17 19:03:16;;;;;;;;;;;;;;;;;;4987301;28;19926;-83
2022/12/17 19:05:41;;;;;;;;;;;;;;;;;;5020510;28;19918;-83
2022/12/17 19:08:07;;;;;;;;;;;;;;;;;;5019613;28;19949;-84
2022/12/17 19:10:33;;;;;;;;;;;;;;;;;;5018773;28;19957;-84
2022/12/17 19:12:59;;;;;;;;;;;;;;;;;;5018281;28;19924;-84
2022/12/17 19:15:27;;;;;;;;;;;;;;;;;;5017768;28;19921;-83
2022/12/17 19:17:53;;;;;;;;;;;;;;;;;;5018423;28;19986;-83
2022/12/17 19:20:18;;;;;;;;;;;;;;;;;;5018689;28;19949;-83
2022/12/17 19:22:44;;;;;;;;;;;;;;;;;;5017561;28;19981;-83
2022/12/17 19:25:10;;;;;;;;;;;;;;;;;;5017121;28;19977;-83
2022/12/17 19:27:35;;;;;;;;;;;;;;;;;;5015040;28;19921;-83
2022/12/17 19:30:01;;;;;;;;;;;;;;;;;;5018154;28;19946;-83
2022/12/17 19:32:26;;;;;;;;;;;;;;;;;;5017531;28;19909;-83
2022/12/17 19:34:52;;;;;;;;;;;;;;;;;;5017148;28;19928;-83
2022/12/17 19:37:18;;;;;;;;;;;;;;;;;;5000899;28;19918;-83
2022/12/17 19:39:43;;;;;;;;;;;;;;;;;;5017069;28;19905;-84
2022/12/17 19:42:23;;;;;;;;;;;;;;;;;;5001256;28;19941;-83
2022/12/17 19:44:48;;;;;;;;;;;;;;;;;;5015548;28;19944;-83
2022/12/17 19:47:14;;;;;;;;;;;;;;;;;;5017856;28;19957;-82
2022/12/17 19:49:39;;;;;;;;;;;;;;;;;;5015795;28;20385;-83
2022/12/17 19:52:05;;;;;;;;;;;;;;;;;;4983276;28;19937;-83
2022/12/17 19:54:31;;;;;;;;;;;;;;;;;;5015509;28;19914;-83
2022/12/17 19:56:56;;;;;;;;;;;;;;;;;;5016646;28;19985;-83
2022/12/17 19:59:22;;;;;;;;;;;;;;;;;;5015937;28;19924;-82
2022/12/17 20:01:47;;;;;;;;;;;;;;;;;;4997256;28;19924;-83
2022/12/17 20:04:13;;;;;;;;;;;;;;;;;;5013904;28;20297;-83
2022/12/17 20:06:40;;;;;;;;;;;;;;;;;;5013499;28;19921;-82
2022/12/17 20:09:05;;;;;;;;;;;;;;;;;;4998293;28;19953;-84
2022/12/17 20:11:34;;;;;;;;;;;;;;;;;;5016533;28;19914;-82
2022/12/17 20:14:00;;;;;;;;;;;;;;;;;;5017283;28;19921;-84
2022/12/17 20:16:25;;;;;;;;;;;;;;;;;;5014791;28;19914;-82
2022/12/17 20:18:51;;;;;;;;;;;;;;;;;;5015790;28;19984;-82
2022/12/17 20:21:16;;;;;;;;;;;;;;;;;;5015918;28;19937;-83
2022/12/17 20:23:42;;;;;;;;;;;;;;;;;;5014608;28;19940;-82
2022/12/17 20:26:10;;;;;;;;;;;;;;;;;;5015239;28;19968;-83
2022/12/17 20:28:35;;;;;;;;;;;;;;;;;;5015682;28;19914;-84
2022/12/17 20:31:01;;;;;;;;;;;;;;;;;;5012651;28;20285;-82
2022/12/17 20:33:27;;;;;;;;;;;;;;;;;;5012719;28;19953;-83
2022/12/17 20:35:55;;;;;;;;;;;;;;;;;;5014630;28;19936;-84
2022/12/17 20:38:21;;;;;;;;;;;;;;;;;;4999280;28;19914;-85
2022/12/17 20:40:52;;;;;;;;;;;;;;;;;;5001795;28;19920;-82
2022/12/17 20:43:17;;;;;;;;;;;;;;;;;;5001469;28;19969;-83
2022/12/17 20:45:43;;;;;;;;;;;;;;;;;;5018348;28;19913;-84
2022/12/17 20:48:11;;;;;;;;;;;;;;;;;;5017743;28;19914;-83
2022/12/17 20:50:36;;;;;;;;;;;;;;;;;;5014749;28;19941;-83
2022/12/17 20:53:02;;;;;;;;;;;;;;;;;;4998821;28;19973;-84
2022/12/17 20:55:33;;;;;;;;;;;;;;;;;;5017143;28;19973;-84
2022/12/17 20:58:01;;;;;;;;;;;;;;;;;;5017607;28;19914;-83
2022/12/17 21:00:29;;;;;;;;;;;;;;;;;;5017038;28;19913;-84
2022/12/17 21:02:55;;;;;;;;;;;;;;;;;;5000690;28;19954;-83
2022/12/17 21:05:21;;;;;;;;;;;;;;;;;;5017235;28;19924;-84
2022/12/17 21:07:47;;;;;;;;;;;;;;;;;;5015432;28;19977;-84
2022/12/17 21:10:13;;;;;;;;;;;;;;;;;;5015799;28;19997;-83
2022/12/17 21:15:22;;;;;;;;;;;;;;;;;;5016978;28;19910;-84
2022/12/17 21:17:48;;;;;;;;;;;;;;;;;;5016234;28;19970;-84
2022/12/17 21:20:14;;;;;;;;;;;;;;;;;;5016587;28;19905;-84
2022/12/17 21:22:42;;;;;;;;;;;;;;;;;;5016817;28;19921;-84
2022/12/17 21:25:08;;;;;;;;;;;;;;;;;;4983795;28;19898;-84
2022/12/17 21:27:36;;;;;;;;;;;;;;;;;;5018215;28;19910;-83
2022/12/17 21:30:23;;;;;;;;;;;;;;;;;;5017136;28;19986;-84
2022/12/17 21:32:48;;;;;;;;;;;;;;;;;;5017286;28;19918;-84
2022/12/17 21:35:14;;;;;;;;;;;;;;;;;;5016889;28;19902;-83
2022/12/17 21:37:42;;;;;;;;;;;;;;;;;;5018019;28;19936;-84
2022/12/17 21:40:10;;;;;;;;;;;;;;;;;;5018052;28;19922;-85
2022/12/17 21:45:24;;;;;;;;;;;;;;;;;;5018487;28;19902;-84
2022/12/17 21:47:50;;;;;;;;;;;;;;;;;;5020482;28;19931;-83
2022/12/17 21:50:19;;;;;;;;;;;;;;;;;;5020582;28;19925;-84
2022/12/17 21:52:54;;;;;;;;;;;;;;;;;;5020869;28;19973;-84
2022/12/17 21:55:23;;;;;;;;;;;;;;;;;;5020758;28;19922;-84
2022/12/17 21:57:49;;;;;;;;;;;;;;;;;;5021084;28;19918;-84
2022/12/17 22:00:15;;;;;;;;;;;;;;;;;;5005185;28;19921;-84
2022/12/17 22:02:41;;;;;;;;;;;;;;;;;;5021909;28;19990;-84
2022/12/17 22:05:06;;;;;;;;;;;;;;;;;;5021792;28;19918;-84
2022/12/17 22:07:32;;;;;;;;;;;;;;;;;;5022758;28;19917;-85
2022/12/17 22:10:00;;;;;;;;;;;;;;;;;;5021720;28;19910;-84
2022/12/17 22:15:10;;;;;;;;;;;;;;;;;;5021864;28;19933;-83
2022/12/17 22:17:38;;;;;;;;;;;;;;;;;;5022617;28;19909;-84
2022/12/17 22:20:06;;;;;;;;;;;;;;;;;;5384096;22;19926;-85
2022/12/17 22:22:32;;;;;;;;;;;;;;;;;;5020684;28;19940;-84
2022/12/17 22:24:58;;;;;;;;;;;;;;;;;;5021326;28;19910;-84
2022/12/17 22:27:23;;;;;;;;;;;;;;;;;;5004558;28;19918;-84
2022/12/17 22:35:25;;;;;;;;;;;;;;;;;;5022275;28;19952;-83
2022/12/17 22:37:53;;;;;;;;;;;;;;;;;;5021326;28;20001;-85
2022/12/17 22:40:20;;;;;;;;;;;;;;;;;;5020354;28;19898;-84
2022/12/17 22:45:30;;;;;;;;;;;;;;;;;;5004183;28;19918;-82
2022/12/17 22:47:56;;;;;;;;;;;;;;;;;;5021004;28;19914;-84
2022/12/17 22:50:24;;;;;;;;;;;;;;;;;;5021307;28;19932;-84
2022/12/17 22:52:52;;;;;;;;;;;;;;;;;;5020705;28;19902;-84
2022/12/17 22:55:18;;;;;;;;;;;;;;;;;;5021119;28;19922;-84
2022/12/17 22:57:47;;;;;;;;;;;;;;;;;;4987905;28;19914;-84
2022/12/17 23:00:16;;;;;;;;;;;;;;;;;;5019959;28;19953;-84
2022/12/17 23:02:44;;;;;;;;;;;;;;;;;;5020386;28;19909;-84
2022/12/17 23:05:10;;;;;;;;;;;;;;;;;;5021499;28;19902;-84
2022/12/17 23:07:35;;;;;;;;;;;;;;;;;;5020317;28;19898;-83
2022/12/17 23:10:01;;;;;;;;;;;;;;;;;;5022116;28;19961;-84
2022/12/17 23:17:54;;;;;;;;;;;;;;;;;;5100295;23;19910;-84
2022/12/17 23:20:20;;;;;;;;;;;;;;;;;;5022008;28;19921;-83
2022/12/17 23:22:45;;;;;;;;;;;;;;;;;;5022584;22;19926;-84
2022/12/17 23:25:11;;;;;;;;;;;;;;;;;;5007939;28;19918;-85
2022/12/17 23:27:36;;;;;;;;;;;;;;;;;;5007886;28;20293;-84
2022/12/17 23:30:01;;;;;;;;;;;;;;;;;;4975454;28;19917;-83
2022/12/17 23:32:27;;;;;;;;;;;;;;;;;;4993547;28;20329;-84
2022/12/17 23:34:52;;;;;;;;;;;;;;;;;;5010567;28;20444;-84
2022/12/17 23:37:18;;;;;;;;;;;;;;;;;;5010318;28;20463;-83
2022/12/17 23:39:43;;;;;;;;;;;;;;;;;;5009411;28;19914;-83
2022/12/17 23:42:09;;;;;;;;;;;;;;;;;;5006857;28;19949;-84
2022/12/17 23:44:34;;;;;;;;;;;;;;;;;;5009136;28;19945;-85
2022/12/17 23:47:00;;;;;;;;;;;;;;;;;;5007381;28;19914;-84
2022/12/17 23:49:25;;;;;;;;;;;;;;;;;;4991948;28;19918;-84
2022/12/17 23:51:50;;;;;;;;;;;;;;;;;;4992396;28;19913;-84
2022/12/17 23:54:16;;;;;;;;;;;;;;;;;;5008917;28;19989;-83
2022/12/17 23:56:43;;;;;;;;;;;;;;;;;;5010173;28;19913;-83
2022/12/17 23:59:09;;;;;;;;;;;;;;;;;;4991526;28;19913;-84
